createdAt,value
2022-11-16T00:00:26.148Z,20.70
2022-11-16T00:03:04.226Z,19.07
2022-11-16T00:05:30.495Z,19.73
2022-11-16T00:07:57.450Z,18.83
2022-11-16T00:10:23.769Z,18.13
2022-11-16T00:12:50.216Z,17.40
2022-11-16T00:15:16.470Z,16.27
2022-11-16T00:17:42.909Z,16.47
2022-11-16T00:20:09.650Z,17.40
2022-11-16T00:22:36.114Z,16.00
2022-11-16T00:25:02.352Z,16.77
2022-11-16T00:27:29.176Z,16.43
2022-11-16T00:29:55.498Z,15.87
2022-11-16T00:32:22.971Z,15.83
2022-11-16T00:34:49.118Z,15.40
2022-11-16T00:37:15.526Z,17.10
2022-11-16T00:39:41.663Z,15.63
2022-11-16T00:42:12.393Z,16.17
2022-11-16T00:44:38.575Z,14.60
2022-11-16T00:47:05.014Z,15.07
2022-11-16T00:49:31.166Z,15.53
2022-11-16T00:51:57.675Z,16.17
2022-11-16T00:54:24.286Z,13.90
2022-11-16T00:56:50.739Z,15.87
2022-11-16T00:59:16.993Z,17.33
2022-11-16T01:01:43.897Z,16.60
2022-11-16T01:04:10.215Z,16.57
2022-11-16T01:06:36.814Z,16.00
2022-11-16T01:09:03.403Z,16.63
2022-11-16T01:11:48.118Z,15.57
2022-11-16T01:14:14.339Z,15.73
2022-11-16T01:16:42.660Z,15.13
2022-11-16T01:19:09.010Z,16.87
2022-11-16T01:21:35.590Z,17.10
2022-11-16T01:24:02.299Z,16.70
2022-11-16T01:26:29.175Z,17.37
2022-11-16T01:28:58.099Z,16.27
2022-11-16T01:31:25.653Z,16.67
2022-11-16T01:33:51.939Z,17.10
2022-11-16T01:36:22.422Z,17.30
2022-11-16T01:38:49.972Z,17.87
2022-11-16T01:41:24.953Z,17.07
2022-11-16T01:44:02.520Z,18.00
2022-11-16T01:46:35.105Z,18.17
2022-11-16T01:49:09.948Z,19.00
2022-11-16T01:51:39.196Z,19.50
2022-11-16T01:54:08.094Z,19.23
2022-11-16T01:56:38.939Z,19.63
2022-11-16T01:59:19.469Z,19.10
2022-11-16T02:01:46.218Z,19.93
2022-11-16T02:04:13.919Z,18.43
2022-11-16T02:07:09.124Z,19.37
2022-11-16T02:10:06.525Z,20.63
2022-11-16T02:13:10.917Z,20.07
2022-11-16T02:16:19.518Z,20.47
2022-11-16T02:18:56.404Z,18.67
2022-11-16T02:21:43.384Z,19.43
2022-11-16T02:24:34.329Z,18.27
2022-11-16T02:27:15.911Z,18.70
2022-11-16T02:29:47.709Z,18.87
2022-11-16T02:32:20.460Z,17.83
2022-11-16T02:34:52.609Z,18.53
2022-11-16T02:37:22.259Z,18.27
2022-11-16T02:39:55.314Z,18.37
2022-11-16T02:42:29.192Z,17.87
2022-11-16T02:44:58.717Z,15.70
2022-11-16T02:47:29.821Z,18.00
2022-11-16T02:50:01.677Z,17.87
2022-11-16T02:52:28.778Z,17.10
2022-11-16T02:54:56.542Z,16.77
2022-11-16T02:57:41.556Z,16.77
2022-11-16T03:00:17.587Z,16.77
2022-11-16T03:03:01.377Z,17.03
2022-11-16T03:05:33.105Z,16.13
2022-11-16T03:08:13.397Z,16.07
2022-11-16T03:11:02.329Z,16.43
2022-11-16T03:13:33.380Z,17.37
2022-11-16T03:16:04.671Z,16.03
2022-11-16T03:18:31.328Z,16.10
2022-11-16T03:21:10.493Z,15.47
2022-11-16T03:23:37.151Z,16.60
2022-11-16T03:26:07.614Z,15.23
2022-11-16T03:28:46.851Z,16.47
2022-11-16T03:31:20.973Z,15.63
2022-11-16T03:33:52.386Z,16.80
2022-11-16T03:36:39.997Z,28.00
2022-11-16T03:39:11.897Z,23.53
2022-11-16T03:41:43.534Z,19.27
2022-11-16T03:44:12.848Z,17.30
2022-11-16T03:46:44.678Z,16.97
2022-11-16T03:49:12.706Z,17.77
2022-11-16T03:51:40.218Z,18.20
2022-11-16T03:54:06.799Z,19.03
2022-11-16T03:56:34.753Z,18.17
2022-11-16T03:59:02.021Z,18.37
2022-11-16T04:01:30.006Z,17.90
2022-11-16T04:03:56.277Z,17.90
2022-11-16T04:06:42.173Z,17.37
2022-11-16T04:09:28.276Z,17.57
2022-11-16T04:12:13.606Z,16.20
2022-11-16T04:15:00.265Z,16.73
2022-11-16T04:17:47.401Z,16.67
2022-11-16T04:20:33.357Z,16.40
2022-11-16T04:23:25.103Z,16.47
2022-11-16T04:25:52.301Z,15.47
2022-11-16T04:28:23.268Z,16.37
2022-11-16T04:31:12.941Z,15.93
2022-11-16T04:34:02.514Z,14.83
2022-11-16T04:36:47.555Z,16.57
2022-11-16T04:39:14.309Z,15.83
2022-11-16T04:41:59.718Z,15.33
2022-11-16T04:44:49.427Z,16.80
2022-11-16T04:47:16.390Z,16.23
2022-11-16T04:49:42.938Z,15.80
2022-11-16T04:52:09.552Z,14.77
2022-11-16T04:54:36.386Z,15.60
2022-11-16T04:57:02.948Z,14.90
2022-11-16T04:59:29.535Z,14.60
2022-11-16T05:02:08.209Z,14.73
2022-11-16T05:04:42.245Z,14.70
2022-11-16T05:07:11.465Z,13.00
2022-11-16T05:09:44.523Z,12.77
2022-11-16T05:12:23.819Z,11.33
2022-11-16T05:14:54.675Z,11.77
2022-11-16T05:17:24.612Z,13.77
2022-11-16T05:20:09.685Z,11.60
2022-11-16T05:22:43.861Z,12.70
2022-11-16T05:25:11.793Z,12.67
2022-11-16T05:27:37.996Z,10.27
2022-11-16T05:30:06.068Z,10.43
2022-11-16T05:32:33.206Z,9.67
2022-11-16T05:35:00.347Z,10.20
2022-11-16T05:37:27.144Z,13.00
2022-11-16T05:39:54.210Z,9.30
2022-11-16T05:42:24.245Z,9.80
2022-11-16T05:44:51.218Z,11.73
2022-11-16T05:47:17.783Z,10.80
2022-11-16T05:49:44.752Z,8.43
2022-11-16T05:52:12.034Z,8.93
2022-11-16T05:54:39.870Z,9.07
2022-11-16T05:57:06.117Z,9.13
2022-11-16T05:59:33.014Z,9.27
2022-11-16T06:02:04.399Z,9.07
2022-11-16T06:04:33.275Z,13.40
2022-11-16T06:06:59.828Z,8.70
2022-11-16T06:09:30.427Z,8.73
2022-11-16T06:12:02.775Z,9.33
2022-11-16T06:14:29.865Z,9.27
2022-11-16T06:16:57.238Z,8.13
2022-11-16T06:19:28.218Z,8.60
2022-11-16T06:21:57.402Z,9.60
2022-11-16T06:24:25.947Z,8.13
2022-11-16T06:26:52.254Z,12.47
2022-11-16T06:29:18.767Z,11.00
2022-11-16T06:31:45.025Z,12.50
2022-11-16T06:34:12.377Z,9.30
2022-11-16T06:36:41.582Z,11.00
2022-11-16T06:39:08.400Z,9.70
2022-11-16T06:41:41.197Z,10.17
2022-11-16T06:44:09.565Z,11.23
2022-11-16T06:46:39.121Z,11.63
2022-11-16T06:49:06.016Z,11.83
2022-11-16T06:51:33.709Z,11.47
2022-11-16T06:54:00.390Z,9.90
2022-11-16T06:56:27.589Z,11.90
2022-11-16T06:58:56.864Z,11.37
2022-11-16T07:01:25.241Z,13.97
2022-11-16T07:03:57.072Z,12.17
2022-11-16T07:06:23.263Z,11.20
2022-11-16T07:08:50.031Z,11.37
2022-11-16T07:11:21.516Z,11.13
2022-11-16T07:13:48.654Z,11.50
2022-11-16T07:16:15.048Z,11.47
2022-11-16T07:18:48.785Z,12.37
2022-11-16T07:21:16.293Z,10.07
2022-11-16T07:23:43.527Z,11.10
2022-11-16T07:26:13.020Z,10.13
2022-11-16T07:28:51.413Z,10.27
2022-11-16T07:31:20.650Z,9.67
2022-11-16T07:34:04.414Z,9.60
2022-11-16T07:36:48.497Z,9.90
2022-11-16T07:39:16.395Z,9.57
2022-11-16T07:41:44.414Z,10.07
2022-11-16T07:44:31.689Z,9.13
2022-11-16T07:47:05.608Z,9.67
2022-11-16T07:49:33.719Z,10.07
2022-11-16T07:52:09.058Z,9.63
2022-11-16T07:54:53.862Z,9.47
2022-11-16T07:57:23.323Z,9.60
2022-11-16T07:59:52.034Z,9.97
2022-11-16T08:02:18.355Z,9.67
2022-11-16T08:04:46.272Z,9.93
2022-11-16T08:07:12.628Z,9.37
2022-11-16T08:09:46.190Z,9.07
2022-11-16T08:12:14.936Z,8.30
2022-11-16T08:14:42.088Z,9.63
2022-11-16T08:17:08.736Z,8.63
2022-11-16T08:19:39.515Z,9.73
2022-11-16T08:22:06.812Z,8.73
2022-11-16T08:24:34.047Z,8.43
2022-11-16T08:27:00.353Z,8.53
2022-11-16T08:29:27.017Z,8.50
2022-11-16T08:31:55.679Z,8.80
2022-11-16T08:34:22.583Z,8.47
2022-11-16T08:36:52.421Z,8.23
2022-11-16T08:39:25.952Z,8.13
2022-11-16T08:41:52.254Z,8.40
2022-11-16T08:44:19.285Z,8.33
2022-11-16T08:46:49.381Z,7.87
2022-11-16T08:49:28.549Z,23.17
2022-11-16T08:51:55.311Z,8.70
2022-11-16T08:54:22.148Z,9.10
2022-11-16T08:56:48.631Z,9.93
2022-11-16T08:59:16.261Z,8.97
2022-11-16T09:01:49.631Z,9.77
2022-11-16T09:04:18.009Z,24.20
2022-11-16T09:06:44.866Z,21.30
2022-11-16T09:09:11.508Z,11.33
2022-11-16T09:11:38.028Z,10.80
2022-11-16T09:14:04.424Z,8.97
2022-11-16T09:16:30.739Z,11.57
2022-11-16T09:18:57.144Z,10.13
2022-11-16T09:21:25.865Z,16.07
2022-11-16T09:23:53.753Z,12.83
2022-11-16T09:26:22.390Z,13.67
2022-11-16T09:28:57.479Z,12.87
2022-11-16T09:31:27.930Z,18.97
2022-11-16T09:33:57.655Z,16.77
2022-11-16T09:36:25.434Z,18.03
2022-11-16T09:39:25.861Z,24.83
2022-11-16T09:42:21.028Z,14.83
2022-11-16T09:45:07.705Z,10.47
2022-11-16T09:47:51.006Z,9.33
2022-11-16T09:50:32.749Z,7.73
2022-11-16T09:53:13.139Z,14.67
2022-11-16T09:55:52.873Z,8.73
2022-11-16T09:58:38.543Z,7.87
2022-11-16T10:01:18.864Z,7.27
2022-11-16T10:03:49.876Z,8.23
2022-11-16T10:06:22.668Z,10.50
2022-11-16T10:08:51.450Z,9.20
2022-11-16T10:11:33.402Z,15.30
2022-11-16T10:14:28.806Z,13.53
2022-11-16T10:17:12.210Z,9.87
2022-11-16T10:19:52.658Z,8.07
2022-11-16T10:22:32.841Z,5.93
2022-11-16T10:25:05.422Z,5.10
2022-11-16T10:28:09.073Z,5.00
2022-11-16T10:30:45.857Z,5.03
2022-11-16T10:33:18.875Z,8.60
2022-11-16T10:35:55.366Z,5.97
2022-11-16T10:38:29.998Z,5.03
2022-11-16T10:41:13.993Z,5.90
2022-11-16T10:43:42.664Z,5.13
2022-11-16T10:46:34.535Z,4.77
2022-11-16T10:49:28.345Z,7.03
2022-11-16T10:51:54.735Z,5.67
2022-11-16T10:54:22.500Z,8.63
2022-11-16T10:56:59.088Z,8.23
2022-11-16T10:59:42.219Z,11.43
2022-11-16T11:02:35.036Z,5.50
2022-11-16T11:05:05.654Z,6.50
2022-11-16T11:07:39.168Z,5.60
2022-11-16T11:10:29.344Z,4.63
2022-11-16T11:13:11.203Z,6.90
2022-11-16T11:15:42.059Z,5.27
2022-11-16T11:18:22.536Z,7.77
2022-11-16T11:21:07.750Z,8.73
2022-11-16T11:23:44.955Z,6.77
2022-11-16T11:26:33.099Z,6.47
2022-11-16T11:29:24.121Z,7.17
2022-11-16T11:31:59.413Z,5.90
2022-11-16T11:34:30.077Z,4.90
2022-11-16T11:37:02.301Z,7.10
2022-11-16T11:39:36.577Z,6.13
2022-11-16T11:42:05.150Z,5.37
2022-11-16T11:44:36.482Z,4.87
2022-11-16T11:47:50.459Z,4.33
2022-11-16T11:50:05.270Z,5.43
2022-11-16T11:52:46.028Z,5.27
2022-11-16T11:55:15.362Z,4.80
2022-11-16T11:57:44.297Z,4.77
2022-11-16T12:00:14.949Z,4.43
2022-11-16T12:02:44.589Z,6.10
2022-11-16T12:05:34.487Z,5.00
2022-11-16T12:08:38.594Z,4.70
2022-11-16T12:11:30.822Z,3.30
2022-11-16T12:14:00.199Z,4.60
2022-11-16T12:16:37.663Z,4.40
2022-11-16T12:19:34.975Z,5.27
2022-11-16T12:22:32.684Z,3.70
2022-11-16T12:25:32.758Z,4.73
2022-11-16T12:28:14.110Z,4.77
2022-11-16T12:30:58.628Z,5.20
2022-11-16T12:33:48.785Z,6.80
2022-11-16T12:36:46.818Z,6.00
2022-11-16T12:39:26.944Z,3.67
2022-11-16T12:42:07.789Z,3.67
2022-11-16T12:44:37.100Z,5.23
2022-11-16T12:47:30.807Z,21.73
2022-11-16T12:50:23.997Z,4.50
2022-11-16T12:53:13.358Z,5.30
2022-11-16T12:55:48.789Z,4.00
2022-11-16T12:58:31.040Z,4.47
2022-11-16T13:01:19.481Z,3.63
2022-11-16T13:03:58.865Z,3.50
2022-11-16T13:06:44.387Z,4.77
2022-11-16T13:09:17.916Z,2.87
2022-11-16T13:11:52.118Z,4.50
2022-11-16T13:14:24.223Z,4.93
2022-11-16T13:16:52.516Z,3.93
2022-11-16T13:19:20.061Z,5.47
2022-11-16T13:22:02.406Z,4.37
2022-11-16T13:24:44.672Z,7.37
2022-11-16T13:27:16.816Z,5.73
2022-11-16T13:30:02.818Z,4.87
2022-11-16T13:32:32.192Z,3.40
2022-11-16T13:35:00.506Z,4.10
2022-11-16T13:37:36.024Z,4.00
2022-11-16T13:40:05.580Z,4.03
2022-11-16T13:42:43.143Z,3.37
2022-11-16T13:45:21.758Z,5.33
2022-11-16T13:47:56.404Z,4.30
2022-11-16T13:50:37.933Z,4.30
2022-11-16T13:56:02.914Z,3.57
2022-11-16T13:58:31.461Z,4.50
2022-11-16T14:01:03.113Z,3.33
2022-11-16T14:03:37.984Z,3.67
2022-11-16T14:06:27.839Z,3.97
2022-11-16T14:08:55.913Z,3.40
2022-11-16T14:11:31.595Z,3.50
2022-11-16T14:14:05.400Z,3.90
2022-11-16T14:16:42.103Z,3.97
2022-11-16T14:19:49.705Z,3.67
2022-11-16T14:22:44.734Z,3.30
2022-11-16T14:25:24.664Z,3.40
2022-11-16T14:28:00.281Z,4.30
2022-11-16T14:31:04.783Z,3.90
2022-11-16T14:33:34.425Z,3.50
2022-11-16T14:36:04.007Z,5.83
2022-11-16T14:38:30.597Z,4.33
2022-11-16T14:40:59.844Z,3.67
2022-11-16T14:43:29.411Z,4.13
2022-11-16T14:46:01.106Z,3.73
2022-11-16T14:48:28.171Z,3.70
2022-11-16T14:51:16.221Z,3.50
2022-11-16T14:53:49.900Z,3.13
2022-11-16T14:56:17.981Z,3.97
2022-11-16T14:59:15.728Z,4.20
2022-11-16T15:01:42.001Z,3.93
2022-11-16T15:04:10.836Z,3.63
2022-11-16T15:07:01.281Z,3.43
2022-11-16T15:09:32.929Z,3.80
2022-11-16T15:12:20.893Z,3.77
2022-11-16T15:14:54.024Z,3.83
2022-11-16T15:17:27.190Z,4.50
2022-11-16T15:20:01.452Z,4.20
2022-11-16T15:22:31.189Z,4.67
2022-11-16T15:24:59.968Z,3.80
2022-11-16T15:27:41.522Z,4.10
2022-11-16T15:30:19.964Z,3.93
2022-11-16T15:32:48.093Z,3.87
2022-11-16T15:35:29.373Z,4.47
2022-11-16T15:38:05.246Z,3.70
2022-11-16T15:40:33.338Z,3.90
2022-11-16T15:43:02.295Z,4.10
2022-11-16T15:45:30.785Z,4.00
2022-11-16T15:48:01.109Z,3.50
2022-11-16T15:50:28.345Z,4.77
2022-11-16T15:52:57.006Z,3.73
2022-11-16T15:55:31.007Z,4.40
2022-11-16T15:58:18.210Z,3.97
2022-11-16T16:00:47.875Z,3.80
2022-11-16T16:03:22.446Z,3.63
2022-11-16T16:05:50.079Z,4.57
2022-11-16T16:08:31.446Z,4.93
2022-11-16T16:11:02.816Z,3.50
2022-11-16T16:13:33.050Z,4.00
2022-11-16T16:16:28.138Z,6.27
2022-11-16T16:19:03.639Z,4.13
2022-11-16T16:21:45.215Z,9.27
2022-11-16T16:24:42.123Z,5.43
2022-11-16T16:27:17.801Z,5.43
2022-11-16T16:29:45.843Z,10.20
2022-11-16T16:32:20.474Z,12.80
2022-11-16T16:34:47.199Z,13.70
2022-11-16T16:37:14.353Z,12.97
2022-11-16T16:39:41.488Z,7.97
2022-11-16T16:42:11.412Z,9.53
2022-11-16T16:44:38.109Z,7.93
2022-11-16T16:47:05.156Z,5.20
2022-11-16T16:49:31.714Z,9.50
2022-11-16T16:51:58.650Z,29.23
2022-11-16T16:54:28.149Z,28.20
2022-11-16T16:56:56.099Z,11.93
2022-11-16T16:59:23.708Z,5.20
2022-11-16T17:01:51.267Z,7.03
2022-11-16T17:04:18.142Z,4.47
2022-11-16T17:06:46.774Z,6.07
2022-11-16T17:09:13.736Z,4.50
2022-11-16T17:11:40.360Z,4.50
2022-11-16T17:14:07.417Z,4.60
2022-11-16T17:16:35.051Z,8.90
2022-11-16T17:19:02.137Z,5.30
2022-11-16T17:21:29.072Z,4.67
2022-11-16T17:23:55.862Z,7.30
2022-11-16T17:26:24.339Z,4.20
2022-11-16T17:28:55.151Z,4.13
2022-11-16T17:31:21.921Z,3.53
2022-11-16T17:33:48.621Z,7.03
2022-11-16T17:36:15.619Z,3.73
2022-11-16T17:38:41.937Z,3.23
2022-11-16T17:41:18.939Z,3.47
2022-11-16T17:43:46.451Z,3.97
2022-11-16T17:46:16.062Z,3.60
2022-11-16T17:48:44.462Z,3.00
2022-11-16T17:51:12.985Z,4.40
2022-11-16T17:53:40.332Z,5.00
2022-11-16T17:56:07.918Z,4.70
2022-11-16T17:58:34.504Z,4.37
2022-11-16T18:01:01.301Z,3.60
2022-11-16T18:03:27.849Z,3.60
2022-11-16T18:06:03.214Z,3.67
2022-11-16T18:08:34.208Z,4.10
2022-11-16T18:11:07.695Z,4.13
2022-11-16T18:13:34.852Z,3.87
2022-11-16T18:16:09.219Z,10.07
2022-11-16T18:18:37.238Z,32.33
2022-11-16T18:21:05.204Z,14.27
2022-11-16T18:23:36.635Z,7.53
2022-11-16T18:26:15.800Z,5.03
2022-11-16T18:28:45.814Z,3.70
2022-11-16T18:31:15.063Z,4.40
2022-11-16T18:33:42.497Z,3.97
2022-11-16T18:36:10.226Z,4.07
2022-11-16T18:38:37.284Z,5.27
2022-11-16T18:41:13.951Z,3.30
2022-11-16T18:43:51.477Z,3.97
2022-11-16T18:46:20.522Z,5.07
2022-11-16T18:48:47.034Z,4.10
2022-11-16T18:51:14.989Z,4.33
2022-11-16T18:53:42.010Z,4.77
2022-11-16T18:56:16.456Z,3.87
2022-11-16T18:58:52.319Z,3.77
2022-11-16T19:01:25.073Z,3.70
2022-11-16T19:03:53.072Z,3.47
2022-11-16T19:06:20.621Z,3.77
2022-11-16T19:08:55.601Z,3.23
2022-11-16T19:11:23.859Z,3.03
2022-11-16T19:13:56.019Z,3.57
2022-11-16T19:16:31.039Z,3.37
2022-11-16T19:19:02.886Z,3.73
2022-11-16T19:21:41.187Z,2.93
2022-11-16T19:24:10.632Z,3.27
2022-11-16T19:26:40.084Z,2.90
2022-11-16T19:29:06.749Z,2.63
2022-11-16T19:31:33.466Z,2.93
2022-11-16T19:34:02.533Z,3.00
2022-11-16T19:36:30.253Z,3.00
2022-11-16T19:38:56.977Z,3.43
2022-11-16T19:41:24.906Z,3.10
2022-11-16T19:44:01.246Z,3.50
2022-11-16T19:46:32.362Z,4.33
2022-11-16T19:48:59.545Z,4.80
2022-11-16T19:51:28.533Z,3.27
2022-11-16T19:53:55.550Z,3.53
2022-11-16T19:56:23.890Z,3.40
2022-11-16T19:58:51.971Z,3.30
2022-11-16T20:01:20.809Z,3.13
2022-11-16T20:03:48.809Z,3.60
2022-11-16T20:06:17.208Z,3.50
2022-11-16T20:08:48.686Z,4.07
2022-11-16T20:11:24.147Z,4.17
2022-11-16T20:13:52.783Z,3.93
2022-11-16T20:16:22.830Z,4.07
2022-11-16T20:18:50.529Z,3.57
2022-11-16T20:21:28.244Z,3.73
2022-11-16T20:24:00.201Z,3.53
2022-11-16T20:26:31.470Z,3.77
2022-11-16T20:28:58.395Z,4.40
2022-11-16T20:31:27.622Z,4.23
2022-11-16T20:33:55.163Z,3.43
2022-11-16T20:36:24.113Z,3.70
2022-11-16T20:38:51.514Z,4.57
2022-11-16T20:41:23.422Z,3.60
2022-11-16T20:43:52.171Z,4.50
2022-11-16T20:46:21.689Z,3.90
2022-11-16T20:48:48.222Z,3.70
2022-11-16T20:51:17.352Z,4.00
2022-11-16T20:53:47.458Z,4.70
2022-11-16T20:56:15.945Z,4.43
2022-11-16T20:58:42.365Z,3.83
2022-11-16T21:01:27.783Z,4.20
2022-11-16T21:04:00.490Z,4.70
2022-11-16T21:06:28.053Z,4.33
2022-11-16T21:08:54.742Z,4.17
2022-11-16T21:11:26.935Z,4.10
2022-11-16T21:14:12.677Z,4.17
2022-11-16T21:16:42.741Z,3.97
2022-11-16T21:19:09.894Z,4.23
2022-11-16T21:21:37.879Z,4.00
2022-11-16T21:24:04.477Z,3.93
2022-11-16T21:26:32.389Z,4.20
2022-11-16T21:29:00.195Z,4.17
2022-11-16T21:31:32.462Z,4.57
2022-11-16T21:34:02.771Z,3.63
2022-11-16T21:36:31.499Z,3.97
2022-11-16T21:38:58.928Z,3.93
2022-11-16T21:41:26.477Z,3.90
2022-11-16T21:43:53.190Z,4.10
2022-11-16T21:46:25.280Z,3.67
2022-11-16T21:48:53.676Z,4.47
2022-11-16T21:51:24.148Z,4.40
2022-11-16T21:53:50.664Z,4.37
2022-11-16T21:56:19.596Z,4.33
2022-11-16T21:58:46.160Z,4.90
2022-11-16T22:01:15.873Z,4.90
2022-11-16T22:03:44.177Z,4.40
2022-11-16T22:06:34.147Z,4.90
2022-11-16T22:09:01.118Z,4.63
2022-11-16T22:11:40.153Z,4.53
2022-11-16T22:14:06.499Z,4.80
2022-11-16T22:16:33.134Z,5.03
2022-11-16T22:18:59.705Z,4.87
2022-11-16T22:21:26.229Z,5.67
2022-11-16T22:23:53.748Z,5.67
2022-11-16T22:26:20.359Z,4.97
2022-11-16T22:28:46.654Z,4.93
2022-11-16T22:31:14.595Z,5.40
2022-11-16T22:33:41.146Z,5.13
2022-11-16T22:36:10.895Z,5.33
2022-11-16T22:38:37.445Z,5.40
2022-11-16T22:41:04.290Z,5.00
2022-11-16T22:43:30.911Z,5.03
2022-11-16T22:45:58.345Z,5.17
2022-11-16T22:48:29.711Z,4.97
2022-11-16T22:51:15.635Z,5.70
2022-11-16T22:53:41.900Z,4.90
2022-11-16T22:56:09.876Z,5.40
2022-11-16T22:58:37.534Z,4.30
2022-11-16T23:01:06.778Z,5.03
2022-11-16T23:03:33.679Z,5.13
2022-11-16T23:06:00.945Z,4.87
2022-11-16T23:08:27.920Z,5.60
2022-11-16T23:11:24.560Z,5.10
2022-11-16T23:14:11.271Z,5.23
2022-11-16T23:16:39.277Z,5.10
2022-11-16T23:19:26.498Z,5.07
2022-11-16T23:22:12.641Z,5.30
2022-11-16T23:24:57.547Z,4.33
2022-11-16T23:27:30.268Z,5.07
2022-11-16T23:30:01.526Z,4.83
2022-11-16T23:32:29.186Z,4.70
2022-11-16T23:34:56.712Z,4.20
2022-11-16T23:37:23.542Z,5.10
2022-11-16T23:39:49.735Z,4.73
2022-11-16T23:42:35.085Z,5.23
2022-11-16T23:45:01.566Z,5.03
2022-11-16T23:47:28.028Z,5.30
2022-11-16T23:49:54.169Z,4.87
2022-11-16T23:52:20.689Z,5.50
2022-11-16T23:54:46.841Z,4.70
2022-11-16T23:57:13.479Z,5.17
2022-11-16T23:59:39.680Z,4.87
